sensor_id;sensor_type;location;lat;lon;timestamp;P1;durP1;ratioP1;P2;durP2;ratioP2
12511;SDS011;6321;53.798;10.382;2023-04-01T00:01:09;17.20;;;10.77;;
12511;SDS011;6321;53.798;10.382;2023-04-01T00:03:35;17.30;;;10.80;;
12511;SDS011;6321;53.798;10.382;2023-04-01T00:06:02;15.27;;;10.83;;
12511;SDS011;6321;53.798;10.382;2023-04-01T00:08:28;15.30;;;10.30;;
12511;SDS011;6321;53.798;10.382;2023-04-01T00:10:54;31.10;;;11.07;;
12511;SDS011;6321;53.798;10.382;2023-04-01T00:13:21;12.57;;;10.20;;
12511;SDS011;6321;53.798;10.382;2023-04-01T00:15:47;21.77;;;11.87;;
12511;SDS011;6321;53.798;10.382;2023-04-01T00:18:13;18.67;;;10.70;;
12511;SDS011;6321;53.798;10.382;2023-04-01T00:20:44;15.37;;;12.10;;
12511;SDS011;6321;53.798;10.382;2023-04-01T00:23:11;17.67;;;11.73;;
12511;SDS011;6321;53.798;10.382;2023-04-01T00:25:37;17.63;;;11.60;;
12511;SDS011;6321;53.798;10.382;2023-04-01T00:28:03;15.17;;;11.33;;
12511;SDS011;6321;53.798;10.382;2023-04-01T00:30:28;17.67;;;12.10;;
12511;SDS011;6321;53.798;10.382;2023-04-01T00:32:54;15.60;;;11.97;;
12511;SDS011;6321;53.798;10.382;2023-04-01T00:35:20;15.87;;;11.57;;
12511;SDS011;6321;53.798;10.382;2023-04-01T00:37:47;20.17;;;12.63;;
12511;SDS011;6321;53.798;10.382;2023-04-01T00:40:22;18.17;;;12.97;;
12511;SDS011;6321;53.798;10.382;2023-04-01T00:42:48;17.17;;;12.03;;
12511;SDS011;6321;53.798;10.382;2023-04-01T00:45:28;17.67;;;12.97;;
12511;SDS011;6321;53.798;10.382;2023-04-01T00:47:55;16.50;;;12.23;;
12511;SDS011;6321;53.798;10.382;2023-04-01T00:50:22;15.20;;;12.53;;
12511;SDS011;6321;53.798;10.382;2023-04-01T00:52:50;16.23;;;13.03;;
12511;SDS011;6321;53.798;10.382;2023-04-01T00:55:16;21.50;;;13.60;;
12511;SDS011;6321;53.798;10.382;2023-04-01T00:57:42;21.00;;;14.30;;
12511;SDS011;6321;53.798;10.382;2023-04-01T01:00:10;20.73;;;14.57;;
12511;SDS011;6321;53.798;10.382;2023-04-01T01:02:38;18.67;;;14.00;;
12511;SDS011;6321;53.798;10.382;2023-04-01T01:05:06;21.33;;;14.77;;
12511;SDS011;6321;53.798;10.382;2023-04-01T01:10:59;18.13;;;14.10;;
12511;SDS011;6321;53.798;10.382;2023-04-01T01:13:01;21.07;;;14.13;;
12511;SDS011;6321;53.798;10.382;2023-04-01T01:28:40;20.47;;;14.80;;
12511;SDS011;6321;53.798;10.382;2023-04-01T01:33:45;26.63;;;16.23;;
12511;SDS011;6321;53.798;10.382;2023-04-01T01:36:14;21.80;;;14.97;;
12511;SDS011;6321;53.798;10.382;2023-04-01T01:38:41;26.83;;;16.63;;
12511;SDS011;6321;53.798;10.382;2023-04-01T01:41:07;24.60;;;17.00;;
12511;SDS011;6321;53.798;10.382;2023-04-01T01:43:38;26.77;;;16.80;;
12511;SDS011;6321;53.798;10.382;2023-04-01T01:46:09;24.23;;;17.77;;
12511;SDS011;6321;53.798;10.382;2023-04-01T01:48:37;25.57;;;17.97;;
12511;SDS011;6321;53.798;10.382;2023-04-01T01:51:05;27.57;;;18.27;;
12511;SDS011;6321;53.798;10.382;2023-04-01T01:53:31;27.83;;;18.73;;
12511;SDS011;6321;53.798;10.382;2023-04-01T01:55:57;27.70;;;18.07;;
12511;SDS011;6321;53.798;10.382;2023-04-01T01:58:33;28.23;;;18.87;;
12511;SDS011;6321;53.798;10.382;2023-04-01T02:01:06;25.90;;;19.03;;
12511;SDS011;6321;53.798;10.382;2023-04-01T02:03:33;28.63;;;19.63;;
12511;SDS011;6321;53.798;10.382;2023-04-01T02:06:00;29.77;;;20.53;;
12511;SDS011;6321;53.798;10.382;2023-04-01T02:08:32;30.37;;;18.63;;
12511;SDS011;6321;53.798;10.382;2023-04-01T02:11:02;28.77;;;18.50;;
12511;SDS011;6321;53.798;10.382;2023-04-01T02:13:29;28.23;;;19.27;;
12511;SDS011;6321;53.798;10.382;2023-04-01T02:15:59;28.70;;;19.00;;
12511;SDS011;6321;53.798;10.382;2023-04-01T02:18:25;28.63;;;19.17;;
12511;SDS011;6321;53.798;10.382;2023-04-01T02:20:51;28.10;;;19.27;;
12511;SDS011;6321;53.798;10.382;2023-04-01T02:23:17;30.90;;;19.70;;
12511;SDS011;6321;53.798;10.382;2023-04-01T02:25:44;26.00;;;18.13;;
12511;SDS011;6321;53.798;10.382;2023-04-01T02:28:10;29.60;;;19.90;;
12511;SDS011;6321;53.798;10.382;2023-04-01T02:30:38;27.10;;;19.07;;
12511;SDS011;6321;53.798;10.382;2023-04-01T02:33:05;27.17;;;20.00;;
12511;SDS011;6321;53.798;10.382;2023-04-01T02:35:32;29.50;;;20.33;;
12511;SDS011;6321;53.798;10.382;2023-04-01T02:37:59;32.73;;;20.40;;
12511;SDS011;6321;53.798;10.382;2023-04-01T02:40:25;32.17;;;21.47;;
12511;SDS011;6321;53.798;10.382;2023-04-01T02:42:51;33.73;;;20.47;;
12511;SDS011;6321;53.798;10.382;2023-04-01T02:45:17;32.40;;;19.50;;
12511;SDS011;6321;53.798;10.382;2023-04-01T02:47:43;28.83;;;17.27;;
12511;SDS011;6321;53.798;10.382;2023-04-01T02:50:09;33.30;;;18.83;;
12511;SDS011;6321;53.798;10.382;2023-04-01T02:52:35;27.53;;;17.73;;
12511;SDS011;6321;53.798;10.382;2023-04-01T02:55:02;28.43;;;17.70;;
12511;SDS011;6321;53.798;10.382;2023-04-01T02:57:28;25.17;;;15.63;;
12511;SDS011;6321;53.798;10.382;2023-04-01T02:59:54;22.70;;;14.40;;
12511;SDS011;6321;53.798;10.382;2023-04-01T03:02:20;21.67;;;13.73;;
12511;SDS011;6321;53.798;10.382;2023-04-01T03:04:46;19.67;;;12.63;;
12511;SDS011;6321;53.798;10.382;2023-04-01T03:07:12;16.87;;;12.20;;
12511;SDS011;6321;53.798;10.382;2023-04-01T03:09:38;21.57;;;12.00;;
12511;SDS011;6321;53.798;10.382;2023-04-01T03:12:04;14.17;;;10.67;;
12511;SDS011;6321;53.798;10.382;2023-04-01T03:14:30;17.00;;;11.70;;
12511;SDS011;6321;53.798;10.382;2023-04-01T03:16:56;13.27;;;10.60;;
12511;SDS011;6321;53.798;10.382;2023-04-01T03:19:22;15.30;;;10.67;;
12511;SDS011;6321;53.798;10.382;2023-04-01T03:21:48;14.50;;;10.83;;
12511;SDS011;6321;53.798;10.382;2023-04-01T03:24:14;12.33;;;8.53;;
12511;SDS011;6321;53.798;10.382;2023-04-01T03:26:40;13.33;;;9.93;;
12511;SDS011;6321;53.798;10.382;2023-04-01T03:29:06;11.77;;;8.43;;
12511;SDS011;6321;53.798;10.382;2023-04-01T03:31:32;15.67;;;9.80;;
12511;SDS011;6321;53.798;10.382;2023-04-01T03:33:59;11.03;;;7.97;;
12511;SDS011;6321;53.798;10.382;2023-04-01T03:36:25;12.47;;;9.13;;
12511;SDS011;6321;53.798;10.382;2023-04-01T03:38:51;13.03;;;9.07;;
12511;SDS011;6321;53.798;10.382;2023-04-01T03:41:17;12.97;;;9.20;;
12511;SDS011;6321;53.798;10.382;2023-04-01T03:43:43;12.20;;;9.37;;
12511;SDS011;6321;53.798;10.382;2023-04-01T03:46:09;12.57;;;8.87;;
12511;SDS011;6321;53.798;10.382;2023-04-01T03:48:36;14.10;;;9.87;;
12511;SDS011;6321;53.798;10.382;2023-04-01T03:51:05;12.43;;;9.90;;
12511;SDS011;6321;53.798;10.382;2023-04-01T03:53:31;14.57;;;10.40;;
12511;SDS011;6321;53.798;10.382;2023-04-01T03:55:57;17.23;;;9.57;;
12511;SDS011;6321;53.798;10.382;2023-04-01T03:58:23;13.90;;;9.43;;
12511;SDS011;6321;53.798;10.382;2023-04-01T04:00:49;10.93;;;7.57;;
12511;SDS011;6321;53.798;10.382;2023-04-01T04:03:15;12.27;;;9.33;;
12511;SDS011;6321;53.798;10.382;2023-04-01T04:05:48;13.40;;;9.30;;
12511;SDS011;6321;53.798;10.382;2023-04-01T04:08:14;10.33;;;8.30;;
12511;SDS011;6321;53.798;10.382;2023-04-01T04:10:40;10.60;;;8.40;;
12511;SDS011;6321;53.798;10.382;2023-04-01T04:13:06;9.37;;;8.20;;
12511;SDS011;6321;53.798;10.382;2023-04-01T04:15:32;11.40;;;8.23;;
12511;SDS011;6321;53.798;10.382;2023-04-01T04:17:58;11.30;;;8.07;;
12511;SDS011;6321;53.798;10.382;2023-04-01T04:20:24;9.67;;;6.93;;
12511;SDS011;6321;53.798;10.382;2023-04-01T04:22:50;9.83;;;8.33;;
12511;SDS011;6321;53.798;10.382;2023-04-01T04:25:16;9.23;;;7.93;;
12511;SDS011;6321;53.798;10.382;2023-04-01T04:27:42;9.00;;;7.40;;
12511;SDS011;6321;53.798;10.382;2023-04-01T04:30:09;8.40;;;7.43;;
12511;SDS011;6321;53.798;10.382;2023-04-01T04:32:35;9.33;;;7.33;;
12511;SDS011;6321;53.798;10.382;2023-04-01T04:35:01;10.67;;;7.60;;
12511;SDS011;6321;53.798;10.382;2023-04-01T04:37:27;8.70;;;6.90;;
12511;SDS011;6321;53.798;10.382;2023-04-01T04:39:53;7.87;;;6.23;;
12511;SDS011;6321;53.798;10.382;2023-04-01T04:42:19;6.90;;;5.23;;
12511;SDS011;6321;53.798;10.382;2023-04-01T04:44:47;8.03;;;5.43;;
12511;SDS011;6321;53.798;10.382;2023-04-01T04:47:13;6.73;;;5.10;;
12511;SDS011;6321;53.798;10.382;2023-04-01T04:49:39;5.47;;;4.30;;
12511;SDS011;6321;53.798;10.382;2023-04-01T04:52:05;5.97;;;5.10;;
12511;SDS011;6321;53.798;10.382;2023-04-01T04:54:31;5.10;;;4.03;;
12511;SDS011;6321;53.798;10.382;2023-04-01T04:56:57;3.23;;;2.60;;
12511;SDS011;6321;53.798;10.382;2023-04-01T04:59:23;3.17;;;2.87;;
12511;SDS011;6321;53.798;10.382;2023-04-01T05:01:49;2.90;;;2.60;;
12511;SDS011;6321;53.798;10.382;2023-04-01T05:04:15;3.40;;;2.93;;
12511;SDS011;6321;53.798;10.382;2023-04-01T05:06:42;3.13;;;2.40;;
12511;SDS011;6321;53.798;10.382;2023-04-01T05:09:09;3.57;;;2.87;;
12511;SDS011;6321;53.798;10.382;2023-04-01T05:11:35;4.27;;;3.10;;
12511;SDS011;6321;53.798;10.382;2023-04-01T05:14:01;3.50;;;3.13;;
12511;SDS011;6321;53.798;10.382;2023-04-01T05:16:27;2.93;;;2.63;;
12511;SDS011;6321;53.798;10.382;2023-04-01T05:18:53;2.90;;;2.57;;
12511;SDS011;6321;53.798;10.382;2023-04-01T05:21:19;2.50;;;1.73;;
12511;SDS011;6321;53.798;10.382;2023-04-01T05:23:45;2.67;;;2.27;;
12511;SDS011;6321;53.798;10.382;2023-04-01T05:26:12;2.83;;;2.43;;
12511;SDS011;6321;53.798;10.382;2023-04-01T05:28:38;2.90;;;2.60;;
12511;SDS011;6321;53.798;10.382;2023-04-01T05:31:04;2.43;;;2.23;;
12511;SDS011;6321;53.798;10.382;2023-04-01T05:33:30;4.53;;;2.40;;
12511;SDS011;6321;53.798;10.382;2023-04-01T05:35:56;2.40;;;2.10;;
12511;SDS011;6321;53.798;10.382;2023-04-01T05:38:30;2.30;;;2.10;;
12511;SDS011;6321;53.798;10.382;2023-04-01T05:41:01;2.27;;;2.07;;
12511;SDS011;6321;53.798;10.382;2023-04-01T05:43:28;2.13;;;1.93;;
12511;SDS011;6321;53.798;10.382;2023-04-01T05:45:55;2.27;;;2.07;;
12511;SDS011;6321;53.798;10.382;2023-04-01T05:48:21;3.50;;;2.30;;
12511;SDS011;6321;53.798;10.382;2023-04-01T05:50:47;2.57;;;2.37;;
12511;SDS011;6321;53.798;10.382;2023-04-01T05:53:12;4.27;;;3.30;;
12511;SDS011;6321;53.798;10.382;2023-04-01T05:55:38;3.60;;;3.30;;
12511;SDS011;6321;53.798;10.382;2023-04-01T05:58:05;4.13;;;3.73;;
12511;SDS011;6321;53.798;10.382;2023-04-01T06:00:31;2.80;;;2.60;;
12511;SDS011;6321;53.798;10.382;2023-04-01T06:03:00;3.30;;;3.00;;
12511;SDS011;6321;53.798;10.382;2023-04-01T06:05:28;3.47;;;2.50;;
12511;SDS011;6321;53.798;10.382;2023-04-01T06:07:58;1.90;;;1.80;;
12511;SDS011;6321;53.798;10.382;2023-04-01T06:10:31;3.30;;;2.03;;
12511;SDS011;6321;53.798;10.382;2023-04-01T06:15:36;2.87;;;1.83;;
12511;SDS011;6321;53.798;10.382;2023-04-01T06:18:31;2.80;;;2.27;;
12511;SDS011;6321;53.798;10.382;2023-04-01T06:21:09;2.67;;;1.90;;
12511;SDS011;6321;53.798;10.382;2023-04-01T06:23:47;1.40;;;1.30;;
12511;SDS011;6321;53.798;10.382;2023-04-01T06:26:37;2.10;;;1.77;;
12511;SDS011;6321;53.798;10.382;2023-04-01T06:34:21;3.03;;;2.40;;
12511;SDS011;6321;53.798;10.382;2023-04-01T06:42:24;3.73;;;3.00;;
12511;SDS011;6321;53.798;10.382;2023-04-01T06:52:58;5.10;;;2.57;;
12511;SDS011;6321;53.798;10.382;2023-04-01T06:55:27;3.47;;;2.57;;
12511;SDS011;6321;53.798;10.382;2023-04-01T06:57:57;2.93;;;2.63;;
12511;SDS011;6321;53.798;10.382;2023-04-01T07:02:54;3.03;;;2.60;;
12511;SDS011;6321;53.798;10.382;2023-04-01T07:05:23;5.50;;;2.87;;
12511;SDS011;6321;53.798;10.382;2023-04-01T07:07:51;3.20;;;2.90;;
12511;SDS011;6321;53.798;10.382;2023-04-01T07:10:25;3.40;;;2.87;;
12511;SDS011;6321;53.798;10.382;2023-04-01T07:12:57;3.80;;;2.90;;
12511;SDS011;6321;53.798;10.382;2023-04-01T07:15:25;3.47;;;2.50;;
12511;SDS011;6321;53.798;10.382;2023-04-01T07:17:52;2.73;;;2.10;;
12511;SDS011;6321;53.798;10.382;2023-04-01T07:20:22;3.07;;;2.70;;
12511;SDS011;6321;53.798;10.382;2023-04-01T07:22:55;3.27;;;2.87;;
12511;SDS011;6321;53.798;10.382;2023-04-01T07:25:26;4.73;;;3.43;;
12511;SDS011;6321;53.798;10.382;2023-04-01T07:27:54;3.77;;;3.17;;
12511;SDS011;6321;53.798;10.382;2023-04-01T07:30:22;3.87;;;3.50;;
12511;SDS011;6321;53.798;10.382;2023-04-01T07:33:01;3.23;;;2.93;;
12511;SDS011;6321;53.798;10.382;2023-04-01T07:35:44;4.17;;;2.77;;
12511;SDS011;6321;53.798;10.382;2023-04-01T07:38:20;3.20;;;2.90;;
12511;SDS011;6321;53.798;10.382;2023-04-01T07:46:01;4.17;;;2.80;;
12511;SDS011;6321;53.798;10.382;2023-04-01T07:56:02;4.17;;;2.10;;
12511;SDS011;6321;53.798;10.382;2023-04-01T07:58:42;2.33;;;2.13;;
12511;SDS011;6321;53.798;10.382;2023-04-01T08:03:47;2.60;;;2.10;;
12511;SDS011;6321;53.798;10.382;2023-04-01T08:06:19;2.47;;;2.00;;
12511;SDS011;6321;53.798;10.382;2023-04-01T08:11:41;2.03;;;1.83;;
12511;SDS011;6321;53.798;10.382;2023-04-01T08:17:10;2.60;;;2.40;;
12511;SDS011;6321;53.798;10.382;2023-04-01T08:22:07;3.57;;;2.60;;
12511;SDS011;6321;53.798;10.382;2023-04-01T08:24:44;4.37;;;2.57;;
12511;SDS011;6321;53.798;10.382;2023-04-01T08:34:44;2.00;;;1.80;;
12511;SDS011;6321;53.798;10.382;2023-04-01T08:37:14;2.00;;;1.73;;
12511;SDS011;6321;53.798;10.382;2023-04-01T08:39:46;2.27;;;1.67;;
12511;SDS011;6321;53.798;10.382;2023-04-01T08:42:19;2.47;;;1.90;;
12511;SDS011;6321;53.798;10.382;2023-04-01T08:44:56;1.80;;;1.60;;
12511;SDS011;6321;53.798;10.382;2023-04-01T08:47:40;3.57;;;1.80;;
12511;SDS011;6321;53.798;10.382;2023-04-01T08:55:37;2.73;;;1.60;;
12511;SDS011;6321;53.798;10.382;2023-04-01T09:00:54;1.87;;;1.07;;
12511;SDS011;6321;53.798;10.382;2023-04-01T09:03:32;2.27;;;1.80;;
12511;SDS011;6321;53.798;10.382;2023-04-01T09:06:06;3.70;;;1.63;;
12511;SDS011;6321;53.798;10.382;2023-04-01T09:08:59;3.73;;;1.57;;
12511;SDS011;6321;53.798;10.382;2023-04-01T09:29:51;2.20;;;1.30;;
12511;SDS011;6321;53.798;10.382;2023-04-01T09:32:30;1.40;;;1.30;;
12511;SDS011;6321;53.798;10.382;2023-04-01T09:35:14;1.20;;;1.03;;
12511;SDS011;6321;53.798;10.382;2023-04-01T09:37:53;1.37;;;1.20;;
12511;SDS011;6321;53.798;10.382;2023-04-01T09:48:28;2.20;;;1.30;;
12511;SDS011;6321;53.798;10.382;2023-04-01T10:07:33;1.77;;;1.40;;
12511;SDS011;6321;53.798;10.382;2023-04-01T10:10:18;2.20;;;2.00;;
12511;SDS011;6321;53.798;10.382;2023-04-01T10:25:24;2.13;;;1.97;;
12511;SDS011;6321;53.798;10.382;2023-04-01T10:33:08;2.73;;;2.20;;
12511;SDS011;6321;53.798;10.382;2023-04-01T10:35:50;4.70;;;1.90;;
12511;SDS011;6321;53.798;10.382;2023-04-01T10:44:11;4.03;;;2.33;;
12511;SDS011;6321;53.798;10.382;2023-04-01T10:47:24;5.37;;;3.57;;
12511;SDS011;6321;53.798;10.382;2023-04-01T10:52:39;3.67;;;3.10;;
12511;SDS011;6321;53.798;10.382;2023-04-01T11:00:47;3.33;;;3.00;;
12511;SDS011;6321;53.798;10.382;2023-04-01T11:24:21;6.43;;;5.30;;
12511;SDS011;6321;53.798;10.382;2023-04-01T11:29:52;3.97;;;3.43;;
12511;SDS011;6321;53.798;10.382;2023-04-01T11:35:42;6.07;;;4.67;;
12511;SDS011;6321;53.798;10.382;2023-04-01T11:37:52;4.83;;;4.17;;
12511;SDS011;6321;53.798;10.382;2023-04-01T11:40:37;6.73;;;4.50;;
12511;SDS011;6321;53.798;10.382;2023-04-01T11:45:58;7.50;;;5.20;;
12511;SDS011;6321;53.798;10.382;2023-04-01T11:48:30;7.07;;;5.37;;
12511;SDS011;6321;53.798;10.382;2023-04-01T11:56:36;7.63;;;5.10;;
12511;SDS011;6321;53.798;10.382;2023-04-01T11:59:09;4.97;;;4.37;;
12511;SDS011;6321;53.798;10.382;2023-04-01T12:01:45;6.70;;;4.53;;
12511;SDS011;6321;53.798;10.382;2023-04-01T12:04:21;6.37;;;5.03;;
12511;SDS011;6321;53.798;10.382;2023-04-01T12:07:02;8.20;;;4.70;;
12511;SDS011;6321;53.798;10.382;2023-04-01T12:09:42;5.83;;;4.43;;
12511;SDS011;6321;53.798;10.382;2023-04-01T12:22:43;9.63;;;4.53;;
12511;SDS011;6321;53.798;10.382;2023-04-01T12:27:50;4.83;;;4.23;;
12511;SDS011;6321;53.798;10.382;2023-04-01T12:53:35;6.43;;;3.90;;
12511;SDS011;6321;53.798;10.382;2023-04-01T12:56:07;8.53;;;5.10;;
12511;SDS011;6321;53.798;10.382;2023-04-01T13:08:56;6.13;;;4.30;;
12511;SDS011;6321;53.798;10.382;2023-04-01T13:19:14;10.03;;;5.23;;
12511;SDS011;6321;53.798;10.382;2023-04-01T13:24:23;9.73;;;4.97;;
12511;SDS011;6321;53.798;10.382;2023-04-01T13:26:58;8.53;;;5.70;;
12511;SDS011;6321;53.798;10.382;2023-04-01T13:32:00;10.07;;;6.30;;
12511;SDS011;6321;53.798;10.382;2023-04-01T13:37:03;12.23;;;6.97;;
12511;SDS011;6321;53.798;10.382;2023-04-01T13:39:57;10.87;;;6.13;;
12511;SDS011;6321;53.798;10.382;2023-04-01T13:42:36;13.30;;;6.87;;
12511;SDS011;6321;53.798;10.382;2023-04-01T13:58:17;5.40;;;4.37;;
12511;SDS011;6321;53.798;10.382;2023-04-01T14:00:52;7.77;;;4.93;;
12511;SDS011;6321;53.798;10.382;2023-04-01T14:06:06;8.33;;;4.70;;
12511;SDS011;6321;53.798;10.382;2023-04-01T14:11:12;8.13;;;5.10;;
12511;SDS011;6321;53.798;10.382;2023-04-01T14:16:44;10.37;;;5.17;;
12511;SDS011;6321;53.798;10.382;2023-04-01T14:32:02;9.40;;;5.07;;
12511;SDS011;6321;53.798;10.382;2023-04-01T14:39:43;11.40;;;6.17;;
12511;SDS011;6321;53.798;10.382;2023-04-01T14:42:21;12.27;;;6.00;;
12511;SDS011;6321;53.798;10.382;2023-04-01T14:49:42;7.77;;;5.37;;
12511;SDS011;6321;53.798;10.382;2023-04-01T14:52:55;9.00;;;5.37;;
12511;SDS011;6321;53.798;10.382;2023-04-01T14:54:55;8.63;;;4.43;;
12511;SDS011;6321;53.798;10.382;2023-04-01T14:57:28;9.03;;;6.17;;
12511;SDS011;6321;53.798;10.382;2023-04-01T15:02:56;10.40;;;5.23;;
12511;SDS011;6321;53.798;10.382;2023-04-01T15:05:27;6.47;;;4.17;;
12511;SDS011;6321;53.798;10.382;2023-04-01T15:08:01;9.47;;;6.40;;
12511;SDS011;6321;53.798;10.382;2023-04-01T15:13:12;10.10;;;6.20;;
12511;SDS011;6321;53.798;10.382;2023-04-01T15:18:13;9.00;;;5.13;;
12511;SDS011;6321;53.798;10.382;2023-04-01T15:23:24;11.50;;;5.57;;
12511;SDS011;6321;53.798;10.382;2023-04-01T15:31:25;10.13;;;5.60;;
12511;SDS011;6321;53.798;10.382;2023-04-01T15:36:30;9.97;;;5.70;;
12511;SDS011;6321;53.798;10.382;2023-04-01T15:41:50;10.30;;;6.20;;
12511;SDS011;6321;53.798;10.382;2023-04-01T15:44:26;9.57;;;5.93;;
12511;SDS011;6321;53.798;10.382;2023-04-01T15:46:57;9.80;;;5.67;;
12511;SDS011;6321;53.798;10.382;2023-04-01T15:49:30;8.67;;;4.90;;
12511;SDS011;6321;53.798;10.382;2023-04-01T15:57:38;7.57;;;4.70;;
12511;SDS011;6321;53.798;10.382;2023-04-01T16:03:19;9.60;;;5.23;;
12511;SDS011;6321;53.798;10.382;2023-04-01T16:08:45;9.17;;;5.13;;
12511;SDS011;6321;53.798;10.382;2023-04-01T16:11:18;8.83;;;5.90;;
12511;SDS011;6321;53.798;10.382;2023-04-01T16:16:31;9.13;;;4.73;;
12511;SDS011;6321;53.798;10.382;2023-04-01T16:22:04;9.97;;;5.23;;
12511;SDS011;6321;53.798;10.382;2023-04-01T16:29:48;6.70;;;4.17;;
12511;SDS011;6321;53.798;10.382;2023-04-01T16:32:21;4.27;;;3.13;;
12511;SDS011;6321;53.798;10.382;2023-04-01T16:34:57;7.40;;;3.93;;
12511;SDS011;6321;53.798;10.382;2023-04-01T16:37:33;6.03;;;3.30;;
12511;SDS011;6321;53.798;10.382;2023-04-01T16:45:15;4.30;;;2.87;;
12511;SDS011;6321;53.798;10.382;2023-04-01T16:47:47;5.57;;;3.10;;
12511;SDS011;6321;53.798;10.382;2023-04-01T16:50:24;4.33;;;2.73;;
12511;SDS011;6321;53.798;10.382;2023-04-01T16:52:57;5.73;;;3.23;;
12511;SDS011;6321;53.798;10.382;2023-04-01T16:55:34;7.17;;;3.77;;
12511;SDS011;6321;53.798;10.382;2023-04-01T16:58:00;4.00;;;3.53;;
12511;SDS011;6321;53.798;10.382;2023-04-01T17:00:29;4.67;;;3.53;;
12511;SDS011;6321;53.798;10.382;2023-04-01T17:05:49;6.63;;;3.33;;
12511;SDS011;6321;53.798;10.382;2023-04-01T17:08:37;6.00;;;3.77;;
12511;SDS011;6321;53.798;10.382;2023-04-01T17:21:44;7.90;;;3.50;;
12511;SDS011;6321;53.798;10.382;2023-04-01T17:26:52;5.83;;;3.27;;
12511;SDS011;6321;53.798;10.382;2023-04-01T17:29:23;7.90;;;3.97;;
12511;SDS011;6321;53.798;10.382;2023-04-01T17:34:25;4.50;;;2.83;;
12511;SDS011;6321;53.798;10.382;2023-04-01T17:58:09;4.37;;;3.37;;
12511;SDS011;6321;53.798;10.382;2023-04-01T18:00:47;5.90;;;3.53;;
12511;SDS011;6321;53.798;10.382;2023-04-01T18:03:25;5.30;;;3.50;;
12511;SDS011;6321;53.798;10.382;2023-04-01T18:10:56;5.40;;;3.70;;
12511;SDS011;6321;53.798;10.382;2023-04-01T18:13:33;8.47;;;3.73;;
12511;SDS011;6321;53.798;10.382;2023-04-01T18:21:28;7.97;;;4.20;;
12511;SDS011;6321;53.798;10.382;2023-04-01T18:23:59;6.03;;;3.77;;
12511;SDS011;6321;53.798;10.382;2023-04-01T18:26:33;4.90;;;3.30;;
12511;SDS011;6321;53.798;10.382;2023-04-01T18:29:03;7.80;;;4.35;;
12511;SDS011;6321;53.798;10.382;2023-04-01T18:31:34;5.57;;;3.87;;
12511;SDS011;6321;53.798;10.382;2023-04-01T18:36:44;5.30;;;3.53;;
12511;SDS011;6321;53.798;10.382;2023-04-01T18:39:12;5.97;;;3.20;;
12511;SDS011;6321;53.798;10.382;2023-04-01T18:44:27;8.40;;;3.53;;
12511;SDS011;6321;53.798;10.382;2023-04-01T18:47:11;10.00;;;3.23;;
12511;SDS011;6321;53.798;10.382;2023-04-01T18:49:48;7.67;;;3.13;;
12511;SDS011;6321;53.798;10.382;2023-04-01T18:55:14;5.97;;;3.10;;
12511;SDS011;6321;53.798;10.382;2023-04-01T18:57:45;6.47;;;2.97;;
12511;SDS011;6321;53.798;10.382;2023-04-01T19:00:19;7.37;;;2.60;;
12511;SDS011;6321;53.798;10.382;2023-04-01T19:03:10;7.03;;;3.27;;
12511;SDS011;6321;53.798;10.382;2023-04-01T19:05:34;3.73;;;2.70;;
12511;SDS011;6321;53.798;10.382;2023-04-01T19:10:50;7.17;;;2.83;;
12511;SDS011;6321;53.798;10.382;2023-04-01T19:19:10;4.07;;;2.73;;
12511;SDS011;6321;53.798;10.382;2023-04-01T19:21:44;6.60;;;2.90;;
12511;SDS011;6321;53.798;10.382;2023-04-01T19:26:46;4.33;;;2.73;;
12511;SDS011;6321;53.798;10.382;2023-04-01T19:29:21;3.87;;;2.80;;
12511;SDS011;6321;53.798;10.382;2023-04-01T19:31:51;6.80;;;3.20;;
12511;SDS011;6321;53.798;10.382;2023-04-01T19:37:09;6.57;;;2.83;;
12511;SDS011;6321;53.798;10.382;2023-04-01T19:39:39;3.97;;;3.10;;
12511;SDS011;6321;53.798;10.382;2023-04-01T19:42:11;7.00;;;3.30;;
12511;SDS011;6321;53.798;10.382;2023-04-01T19:52:31;4.83;;;2.20;;
12511;SDS011;6321;53.798;10.382;2023-04-01T19:55:19;2.87;;;2.10;;
12511;SDS011;6321;53.798;10.382;2023-04-01T20:00:34;3.47;;;2.60;;
12511;SDS011;6321;53.798;10.382;2023-04-01T20:03:15;3.97;;;2.97;;
12511;SDS011;6321;53.798;10.382;2023-04-01T20:08:29;4.90;;;2.67;;
12511;SDS011;6321;53.798;10.382;2023-04-01T20:13:29;5.93;;;3.03;;
12511;SDS011;6321;53.798;10.382;2023-04-01T20:16:07;6.87;;;2.43;;
12511;SDS011;6321;53.798;10.382;2023-04-01T20:21:32;6.20;;;2.80;;
12511;SDS011;6321;53.798;10.382;2023-04-01T20:24:01;3.53;;;1.57;;
12511;SDS011;6321;53.798;10.382;2023-04-01T20:26:31;4.87;;;2.20;;
12511;SDS011;6321;53.798;10.382;2023-04-01T20:29:07;5.30;;;3.13;;
12511;SDS011;6321;53.798;10.382;2023-04-01T20:31:41;7.67;;;2.27;;
12511;SDS011;6321;53.798;10.382;2023-04-01T20:34:26;5.60;;;2.80;;
12511;SDS011;6321;53.798;10.382;2023-04-01T20:44:21;4.47;;;2.80;;
12511;SDS011;6321;53.798;10.382;2023-04-01T20:49:39;8.00;;;2.77;;
12511;SDS011;6321;53.798;10.382;2023-04-01T20:52:11;3.87;;;2.30;;
12511;SDS011;6321;53.798;10.382;2023-04-01T20:57:24;6.30;;;2.30;;
12511;SDS011;6321;53.798;10.382;2023-04-01T20:59:58;3.73;;;2.10;;
12511;SDS011;6321;53.798;10.382;2023-04-01T21:05:27;6.50;;;2.20;;
12511;SDS011;6321;53.798;10.382;2023-04-01T21:13:15;2.73;;;1.70;;
12511;SDS011;6321;53.798;10.382;2023-04-01T21:15:48;3.53;;;2.00;;
12511;SDS011;6321;53.798;10.382;2023-04-01T21:23:37;2.67;;;1.73;;
12511;SDS011;6321;53.798;10.382;2023-04-01T21:28:34;4.33;;;2.00;;
12511;SDS011;6321;53.798;10.382;2023-04-01T21:46:10;2.63;;;1.83;;
12511;SDS011;6321;53.798;10.382;2023-04-01T21:48:52;6.60;;;2.10;;
12511;SDS011;6321;53.798;10.382;2023-04-01T21:51:30;5.70;;;1.87;;
12511;SDS011;6321;53.798;10.382;2023-04-01T21:54:15;5.70;;;1.90;;
12511;SDS011;6321;53.798;10.382;2023-04-01T22:04:48;4.70;;;1.80;;
12511;SDS011;6321;53.798;10.382;2023-04-01T22:07:19;3.73;;;1.83;;
12511;SDS011;6321;53.798;10.382;2023-04-01T22:12:15;3.80;;;1.57;;
12511;SDS011;6321;53.798;10.382;2023-04-01T22:17:24;3.10;;;1.90;;
12511;SDS011;6321;53.798;10.382;2023-04-01T22:22:31;4.37;;;1.80;;
12511;SDS011;6321;53.798;10.382;2023-04-01T22:25:12;5.70;;;1.63;;
12511;SDS011;6321;53.798;10.382;2023-04-01T22:27:41;6.30;;;1.87;;
12511;SDS011;6321;53.798;10.382;2023-04-01T22:30:18;5.43;;;1.67;;
12511;SDS011;6321;53.798;10.382;2023-04-01T22:32:47;5.17;;;1.60;;
12511;SDS011;6321;53.798;10.382;2023-04-01T22:40:39;2.30;;;1.10;;
12511;SDS011;6321;53.798;10.382;2023-04-01T22:43:08;1.03;;;0.87;;
12511;SDS011;6321;53.798;10.382;2023-04-01T22:45:47;2.30;;;1.27;;
12511;SDS011;6321;53.798;10.382;2023-04-01T22:48:20;2.37;;;1.50;;
12511;SDS011;6321;53.798;10.382;2023-04-01T22:50:53;2.83;;;1.30;;
12511;SDS011;6321;53.798;10.382;2023-04-01T22:56:07;1.30;;;1.07;;
12511;SDS011;6321;53.798;10.382;2023-04-01T22:58:37;1.63;;;0.90;;
12511;SDS011;6321;53.798;10.382;2023-04-01T23:01:10;6.13;;;1.40;;
12511;SDS011;6321;53.798;10.382;2023-04-01T23:03:39;1.83;;;1.30;;
12511;SDS011;6321;53.798;10.382;2023-04-01T23:06:06;2.70;;;1.50;;
12511;SDS011;6321;53.798;10.382;2023-04-01T23:11:15;5.00;;;1.53;;
12511;SDS011;6321;53.798;10.382;2023-04-01T23:13:44;4.50;;;1.40;;
12511;SDS011;6321;53.798;10.382;2023-04-01T23:16:13;3.47;;;1.57;;
12511;SDS011;6321;53.798;10.382;2023-04-01T23:18:49;2.20;;;1.20;;
12511;SDS011;6321;53.798;10.382;2023-04-01T23:24:28;3.87;;;1.50;;
12511;SDS011;6321;53.798;10.382;2023-04-01T23:27:01;4.87;;;1.60;;
12511;SDS011;6321;53.798;10.382;2023-04-01T23:29:29;2.90;;;1.33;;
12511;SDS011;6321;53.798;10.382;2023-04-01T23:31:59;1.70;;;1.20;;
12511;SDS011;6321;53.798;10.382;2023-04-01T23:34:32;1.43;;;1.17;;